Time;durP1;ratioP1;P1;durP2;ratioP2;P2;SDS_P1;SDS_P2;PMS_P1;PMS_P2;Temp;Humidity;BMP_temperature;BMP_pressure;BME280_temperature;BME280_humidity;BME280_pressure;Samples;Min_cycle;Max_cycle;Signal;HPM_P1;HPM_P2
2022/06/12 00:01:26;;;;;;;2.03;0.70;;;;;;;;;;5001924;28;20042;-57
2022/06/12 00:03:55;;;;;;;1.80;0.60;;;;;;;;;;4998035;28;20049;-57
2022/06/12 00:06:22;;;;;;;1.58;0.80;;;;;;;;;;4995036;28;20034;-55
2022/06/12 00:08:48;;;;;;;0.75;0.73;;;;;;;;;;5004445;28;20045;-51
2022/06/12 00:11:15;;;;;;;1.95;0.93;;;;;;;;;;5009929;28;20072;-54
2022/06/12 00:13:47;;;;;;;1.48;0.70;;;;;;;;;;5010210;28;20045;-54
2022/06/12 00:16:14;;;;;;;0.82;0.60;;;;;;;;;;5011449;28;20041;-51
2022/06/12 00:18:40;;;;;;;2.35;0.80;;;;;;;;;;5010914;28;20474;-57
2022/06/12 00:21:10;;;;;;;1.23;0.70;;;;;;;;;;5011041;28;20042;-58
2022/06/12 00:23:55;;;;;;;2.42;0.90;;;;;;;;;;5010851;28;20054;-55
2022/06/12 00:26:32;;;;;;;1.02;0.68;;;;;;;;;;5010052;28;20444;-54
2022/06/12 00:29:04;;;;;;;2.45;0.98;;;;;;;;;;5000580;28;20080;-52
2022/06/12 00:31:31;;;;;;;1.92;0.55;;;;;;;;;;4990999;28;20140;-55
2022/06/12 00:33:57;;;;;;;1.50;0.68;;;;;;;;;;4991682;28;20375;-54
2022/06/12 00:36:24;;;;;;;2.13;0.73;;;;;;;;;;4997334;28;20041;-55
2022/06/12 00:38:50;;;;;;;0.63;0.60;;;;;;;;;;5010538;28;20085;-59
2022/06/12 00:41:17;;;;;;;0.73;0.73;;;;;;;;;;4992463;28;20449;-51
2022/06/12 00:43:43;;;;;;;1.20;0.80;;;;;;;;;;5010078;28;20131;-55
2022/06/12 00:46:09;;;;;;;;;;;;;;;;;;5011720;28;20049;-54
2022/06/12 00:48:37;;;;;;;1.08;0.73;;;;;;;;;;5010751;28;19924;-54
2022/06/12 00:51:06;;;;;;;2.05;0.77;;;;;;;;;;5010730;28;20077;-58
2022/06/12 00:53:39;;;;;;;0.85;0.65;;;;;;;;;;5008119;28;20049;-51
2022/06/12 00:56:05;;;;;;;1.13;0.60;;;;;;;;;;5004188;28;20448;-54
2022/06/12 00:58:31;;;;;;;;;;;;;;;;;;4990853;28;20488;-58
2022/06/12 01:00:57;;;;;;;0.98;0.80;;;;;;;;;;4990738;28;19922;-53
2022/06/12 01:03:25;;;;;;;0.65;0.65;;;;;;;;;;4991345;28;20058;-55
2022/06/12 01:08:37;;;;;;;0.60;0.60;;;;;;;;;;5010346;28;20046;-55
2022/06/12 01:11:05;;;;;;;2.00;1.00;;;;;;;;;;5002117;28;20038;-54
2022/06/12 01:13:36;;;;;;;2.15;0.98;;;;;;;;;;4990313;28;20101;-60
2022/06/12 01:16:07;;;;;;;1.17;0.90;;;;;;;;;;4998496;28;20049;-54
2022/06/12 01:18:38;;;;;;;2.67;0.80;;;;;;;;;;5010186;28;20092;-55
2022/06/12 01:21:21;;;;;;;1.80;0.75;;;;;;;;;;5009296;28;20494;-54
2022/06/12 01:23:56;;;;;;;1.75;0.88;;;;;;;;;;5010180;28;20042;-54
2022/06/12 01:26:38;;;;;;;0.68;0.68;;;;;;;;;;4976136;28;20180;-54
2022/06/12 01:29:18;;;;;;;1.05;0.80;;;;;;;;;;5010397;28;20099;-55
2022/06/12 01:31:54;;;;;;;1.05;0.80;;;;;;;;;;5009641;28;20375;-54
2022/06/12 01:34:29;;;;;;;0.57;0.57;;;;;;;;;;4999149;28;20042;-54
2022/06/12 01:36:59;;;;;;;1.90;0.90;;;;;;;;;;4990334;28;20133;-55
2022/06/12 01:39:25;;;;;;;1.65;0.77;;;;;;;;;;4990001;28;20089;-54
2022/06/12 01:41:51;;;;;;;;;;;;;;;;;;4998385;28;20073;-55
2022/06/12 01:44:25;;;;;;;1.58;0.70;;;;;;;;;;4990846;28;20012;-54
2022/06/12 01:47:00;;;;;;;2.03;0.93;;;;;;;;;;4997132;28;20048;-54
2022/06/12 01:49:35;;;;;;;1.15;0.75;;;;;;;;;;5010345;28;20471;-56
2022/06/12 01:52:12;;;;;;;2.47;1.07;;;;;;;;;;5010289;28;20398;-55
2022/06/12 01:54:59;;;;;;;0.63;0.57;;;;;;;;;;5010338;28;20273;-54
2022/06/12 01:57:25;;;;;;;;;;;;;;;;;;5013837;28;20050;-55
2022/06/12 01:59:59;;;;;;;0.77;0.77;;;;;;;;;;4993276;28;19976;-57
2022/06/12 02:02:35;;;;;;;1.17;0.70;;;;;;;;;;4994567;28;20375;-54
2022/06/12 02:05:01;;;;;;;1.98;0.95;;;;;;;;;;4977245;28;20062;-53
2022/06/12 02:07:36;;;;;;;1.63;0.68;;;;;;;;;;5012840;28;20049;-54
2022/06/12 02:10:08;;;;;;;1.13;0.70;;;;;;;;;;5010576;28;20081;-54
2022/06/12 02:15:21;;;;;;;2.22;1.05;;;;;;;;;;5014006;28;20056;-54
2022/06/12 02:17:46;;;;;;;;;;;;;;;;;;5003314;28;20046;-55
2022/06/12 02:20:14;;;;;;;2.33;0.85;;;;;;;;;;4994182;28;19980;-54
2022/06/12 02:22:43;;;;;;;0.77;0.77;;;;;;;;;;4993654;28;20046;-54
2022/06/12 02:25:14;;;;;;;0.52;0.50;;;;;;;;;;4993461;28;20109;-55
2022/06/12 02:27:42;;;;;;;0.70;0.50;;;;;;;;;;4992877;28;20455;-53
2022/06/12 02:30:19;;;;;;;0.60;0.60;;;;;;;;;;5008979;28;20117;-53
2022/06/12 02:32:48;;;;;;;0.80;0.80;;;;;;;;;;5012784;28;20480;-54
2022/06/12 02:35:26;;;;;;;1.00;0.65;;;;;;;;;;5003445;28;20046;-54
2022/06/12 02:37:55;;;;;;;1.02;0.57;;;;;;;;;;4993370;28;20054;-54
2022/06/12 02:40:26;;;;;;;1.27;0.60;;;;;;;;;;4999312;28;20442;-55
2022/06/12 02:42:53;;;;;;;1.58;0.77;;;;;;;;;;5011832;28;20129;-54
2022/06/12 02:45:24;;;;;;;1.20;0.65;;;;;;;;;;5013012;28;20567;-54
2022/06/12 02:47:51;;;;;;;1.20;0.93;;;;;;;;;;5011990;28;20038;-54
2022/06/12 02:50:21;;;;;;;1.15;0.70;;;;;;;;;;5013164;28;20062;-53
2022/06/12 02:52:56;;;;;;;1.23;0.73;;;;;;;;;;4997852;28;20135;-54
2022/06/12 02:55:31;;;;;;;0.70;0.52;;;;;;;;;;4995628;28;20046;-55
2022/06/12 02:58:07;;;;;;;1.02;0.80;;;;;;;;;;5011596;28;20045;-55
2022/06/12 03:00:34;;;;;;;0.93;0.80;;;;;;;;;;5012663;28;20053;-54
2022/06/12 03:03:00;;;;;;;0.70;0.60;;;;;;;;;;5012429;28;20044;-56
2022/06/12 03:05:26;;;;;;;;;;;;;;;;;;5012752;28;20042;-57
2022/06/12 03:08:00;;;;;;;0.60;0.60;;;;;;;;;;5012163;28;19925;-57
2022/06/12 03:10:47;;;;;;;1.45;0.70;;;;;;;;;;4993129;28;20107;-56
2022/06/12 03:13:13;;;;;;;;;;;;;;;;;;4993083;28;20089;-57
2022/06/12 03:15:42;;;;;;;2.05;0.80;;;;;;;;;;4993168;28;19973;-57
2022/06/12 03:18:10;;;;;;;0.55;0.50;;;;;;;;;;4993312;28;20046;-55
2022/06/12 03:20:44;;;;;;;1.05;0.60;;;;;;;;;;4996685;28;20112;-55
2022/06/12 03:23:28;;;;;;;1.10;0.70;;;;;;;;;;5012689;28;20046;-57
2022/06/12 03:25:56;;;;;;;0.68;0.55;;;;;;;;;;5010901;28;20045;-55
2022/06/12 03:28:28;;;;;;;0.70;0.70;;;;;;;;;;4994567;28;20398;-57
2022/06/12 03:30:59;;;;;;;0.80;0.80;;;;;;;;;;5011599;28;20088;-55
2022/06/12 03:33:28;;;;;;;0.93;0.80;;;;;;;;;;4999974;28;20050;-53
2022/06/12 03:36:07;;;;;;;1.08;0.63;;;;;;;;;;4991971;28;20518;-56
2022/06/12 03:38:52;;;;;;;1.00;0.90;;;;;;;;;;4992838;28;20038;-55
2022/06/12 03:41:23;;;;;;;0.75;0.75;;;;;;;;;;4991961;28;20093;-54
2022/06/12 03:44:06;;;;;;;1.48;0.65;;;;;;;;;;4994056;28;20046;-56
2022/06/12 03:46:38;;;;;;;0.52;0.50;;;;;;;;;;4992781;28;20050;-55
2022/06/12 03:49:11;;;;;;;0.60;0.60;;;;;;;;;;4990151;28;20423;-56
2022/06/12 03:51:37;;;;;;;0.63;0.50;;;;;;;;;;4994786;28;20060;-56
2022/06/12 03:54:23;;;;;;;2.35;0.73;;;;;;;;;;5008257;28;20042;-54
2022/06/12 03:59:47;;;;;;;1.38;0.50;;;;;;;;;;5011594;28;20085;-55
2022/06/12 04:02:16;;;;;;;1.02;0.68;;;;;;;;;;5011856;28;20128;-58
2022/06/12 04:04:44;;;;;;;0.77;0.60;;;;;;;;;;5011180;28;20495;-55
2022/06/12 04:07:12;;;;;;;0.85;0.57;;;;;;;;;;5011654;28;20041;-54
2022/06/12 04:09:41;;;;;;;1.33;0.85;;;;;;;;;;4994130;28;20435;-55
2022/06/12 04:12:10;;;;;;;1.02;0.88;;;;;;;;;;4990778;28;20046;-55
2022/06/12 04:14:42;;;;;;;1.55;0.68;;;;;;;;;;5000984;28;20129;-57
2022/06/12 04:17:08;;;;;;;0.50;0.50;;;;;;;;;;5010460;28;20455;-53
2022/06/12 04:22:21;;;;;;;0.68;0.65;;;;;;;;;;5011489;28;20081;-54
2022/06/12 04:24:54;;;;;;;1.70;0.80;;;;;;;;;;5002032;28;20101;-59
2022/06/12 04:27:22;;;;;;;0.60;0.60;;;;;;;;;;4999433;28;20053;-57
2022/06/12 04:29:53;;;;;;;0.57;0.57;;;;;;;;;;5010828;28;20639;-55
2022/06/12 04:32:19;;;;;;;0.50;0.50;;;;;;;;;;4990667;28;20061;-57
2022/06/12 04:34:46;;;;;;;1.13;1.02;;;;;;;;;;4991572;28;20456;-59
2022/06/12 04:37:17;;;;;;;1.38;0.80;;;;;;;;;;4991364;28;20046;-55
2022/06/12 04:39:44;;;;;;;2.00;0.90;;;;;;;;;;4995283;28;20049;-55
2022/06/12 04:42:12;;;;;;;0.57;0.57;;;;;;;;;;5009737;28;20042;-53
2022/06/12 04:44:38;;;;;;;2.00;0.98;;;;;;;;;;5011242;28;20050;-55
2022/06/12 04:47:04;;;;;;;1.15;0.80;;;;;;;;;;4993433;28;20041;-54
2022/06/12 04:49:32;;;;;;;1.08;0.70;;;;;;;;;;4993724;28;20058;-57
2022/06/12 04:51:59;;;;;;;2.28;0.70;;;;;;;;;;5009362;28;20121;-54
2022/06/12 04:54:26;;;;;;;0.88;0.70;;;;;;;;;;5010086;28;20042;-54
2022/06/12 04:56:52;;;;;;;1.02;0.85;;;;;;;;;;4997660;28;20407;-57
2022/06/12 04:59:19;;;;;;;0.55;0.55;;;;;;;;;;4991182;28;20049;-57
2022/06/12 05:01:46;;;;;;;0.95;0.68;;;;;;;;;;4991272;28;20042;-55
2022/06/12 05:04:12;;;;;;;1.15;0.90;;;;;;;;;;4990611;28;20057;-52
2022/06/12 05:06:39;;;;;;;1.52;0.80;;;;;;;;;;4991149;28;20050;-54
2022/06/12 05:09:05;;;;;;;1.85;1.00;;;;;;;;;;4989805;28;20042;-55
2022/06/12 05:11:32;;;;;;;0.70;0.70;;;;;;;;;;5004461;28;20053;-56
2022/06/12 05:13:58;;;;;;;1.25;0.85;;;;;;;;;;5010136;28;20066;-55
2022/06/12 05:16:27;;;;;;;0.68;0.55;;;;;;;;;;5010804;28;20046;-57
2022/06/12 05:18:53;;;;;;;1.58;0.90;;;;;;;;;;5009817;28;20562;-57
2022/06/12 05:21:19;;;;;;;1.60;0.70;;;;;;;;;;5007985;28;20042;-55
2022/06/12 05:23:45;;;;;;;;;;;;;;;;;;4991527;28;20058;-55
2022/06/12 05:26:14;;;;;;;2.92;1.10;;;;;;;;;;4989369;28;19926;-59
2022/06/12 05:28:40;;;;;;;0.93;0.70;;;;;;;;;;4990702;28;20050;-55
2022/06/12 05:31:06;;;;;;;;;;;;;;;;;;4990754;28;20053;-58
2022/06/12 05:33:32;;;;;;;0.55;0.55;;;;;;;;;;5000665;28;20270;-57
2022/06/12 05:35:59;;;;;;;1.92;1.00;;;;;;;;;;5009765;28;20056;-54
2022/06/12 05:38:25;;;;;;;2.17;0.70;;;;;;;;;;5010227;28;20557;-55
2022/06/12 05:40:51;;;;;;;1.45;0.90;;;;;;;;;;4991948;28;20044;-60
2022/06/12 05:43:18;;;;;;;1.27;0.63;;;;;;;;;;4973665;28;20042;-54
2022/06/12 05:45:44;;;;;;;2.58;0.88;;;;;;;;;;5010271;28;20464;-56
2022/06/12 05:48:16;;;;;;;1.67;0.95;;;;;;;;;;5009977;28;20088;-55
2022/06/12 05:50:52;;;;;;;0.90;0.80;;;;;;;;;;5010237;28;20053;-55
2022/06/12 05:53:19;;;;;;;1.27;0.60;;;;;;;;;;5008362;28;20447;-54
2022/06/12 05:55:45;;;;;;;1.20;0.70;;;;;;;;;;5006036;28;20049;-54
2022/06/12 05:58:12;;;;;;;1.60;0.88;;;;;;;;;;5009032;28;20193;-55
2022/06/12 06:00:38;;;;;;;1.23;0.73;;;;;;;;;;4992357;28;20391;-57
2022/06/12 06:03:04;;;;;;;2.05;0.80;;;;;;;;;;5009838;28;20046;-54
2022/06/12 06:05:30;;;;;;;0.80;0.80;;;;;;;;;;4991986;28;20085;-57
2022/06/12 06:07:56;;;;;;;2.33;0.80;;;;;;;;;;4990100;28;20043;-52
2022/06/12 06:10:24;;;;;;;0.82;0.70;;;;;;;;;;4989585;28;20133;-56
2022/06/12 06:12:52;;;;;;;1.05;0.60;;;;;;;;;;4998301;28;20582;-53
2022/06/12 06:15:18;;;;;;;3.72;0.90;;;;;;;;;;5008287;28;20499;-54
2022/06/12 06:17:44;;;;;;;2.20;0.85;;;;;;;;;;5010059;28;20132;-57
2022/06/12 06:20:13;;;;;;;2.45;0.80;;;;;;;;;;5009137;28;20598;-54
2022/06/12 06:22:40;;;;;;;2.88;1.35;;;;;;;;;;4987161;28;20046;-55
2022/06/12 06:25:06;;;;;;;2.88;0.80;;;;;;;;;;4989257;28;20058;-51
2022/06/12 06:27:32;;;;;;;1.55;0.70;;;;;;;;;;4989559;28;20053;-53
2022/06/12 06:29:58;;;;;;;;;;;;;;;;;;4983164;28;20042;-55
2022/06/12 06:32:25;;;;;;;;;;;;;;;;;;5010234;28;20003;-53
2022/06/12 06:34:51;;;;;;;0.65;0.65;;;;;;;;;;4992027;28;19965;-56
2022/06/12 06:37:17;;;;;;;1.05;0.80;;;;;;;;;;5008145;28;20058;-54
2022/06/12 06:39:43;;;;;;;1.08;0.70;;;;;;;;;;5009063;28;20048;-54
2022/06/12 06:42:10;;;;;;;1.02;0.90;;;;;;;;;;4978898;28;20038;-53
2022/06/12 06:47:22;;;;;;;0.88;0.70;;;;;;;;;;5013142;28;20049;-54
2022/06/12 06:49:48;;;;;;;1.75;0.60;;;;;;;;;;5013610;28;20044;-53
2022/06/12 06:52:15;;;;;;;1.38;0.80;;;;;;;;;;5013134;28;20038;-54
2022/06/12 06:54:41;;;;;;;2.17;1.10;;;;;;;;;;5012733;28;20395;-54
2022/06/12 06:57:07;;;;;;;1.52;0.80;;;;;;;;;;5012322;28;20097;-54
2022/06/12 06:59:34;;;;;;;1.20;0.80;;;;;;;;;;5006500;28;20384;-53
2022/06/12 07:02:00;;;;;;;2.85;0.77;;;;;;;;;;5005544;28;20125;-54
2022/06/12 07:04:26;;;;;;;1.52;0.90;;;;;;;;;;4993972;28;20050;-52
2022/06/12 07:06:52;;;;;;;2.65;1.42;;;;;;;;;;4993988;28;20046;-51
2022/06/12 07:09:18;;;;;;;3.00;1.10;;;;;;;;;;4992649;28;20092;-52
2022/06/12 07:11:44;;;;;;;;;;;;;;;;;;5007455;28;20038;-53
2022/06/12 07:14:10;;;;;;;3.75;1.10;;;;;;;;;;5012863;28;19971;-54
2022/06/12 07:16:37;;;;;;;4.22;1.25;;;;;;;;;;4996131;28;20037;-51
2022/06/12 07:19:03;;;;;;;2.92;0.85;;;;;;;;;;4995246;28;20057;-52
2022/06/12 07:21:29;;;;;;;3.40;1.17;;;;;;;;;;5002176;28;20038;-52
2022/06/12 07:23:55;;;;;;;1.73;0.73;;;;;;;;;;4992724;28;20038;-53
2022/06/12 07:26:24;;;;;;;1.55;0.80;;;;;;;;;;4993326;28;20050;-55
2022/06/12 07:28:50;;;;;;;1.85;0.70;;;;;;;;;;5013120;28;20128;-51
2022/06/12 07:31:17;;;;;;;2.88;0.80;;;;;;;;;;5012173;28;20046;-53
2022/06/12 07:33:43;;;;;;;5.93;1.50;;;;;;;;;;5013196;28;20107;-54
2022/06/12 07:36:10;;;;;;;2.22;1.00;;;;;;;;;;5012333;28;20100;-50
2022/06/12 07:38:37;;;;;;;2.92;1.00;;;;;;;;;;5012954;28;20049;-55
2022/06/12 07:41:04;;;;;;;6.50;0.90;;;;;;;;;;5010037;28;20042;-51
2022/06/12 07:43:33;;;;;;;1.13;0.70;;;;;;;;;;5012481;28;20053;-50
2022/06/12 07:45:59;;;;;;;2.03;0.88;;;;;;;;;;4996988;28;20618;-52
2022/06/12 07:48:26;;;;;;;1.88;0.80;;;;;;;;;;5012107;28;20042;-49
2022/06/12 07:50:52;;;;;;;3.00;1.08;;;;;;;;;;5012557;28;20187;-50
2022/06/12 07:53:20;;;;;;;1.10;0.90;;;;;;;;;;4994890;28;20041;-53
2022/06/12 07:55:46;;;;;;;2.70;0.90;;;;;;;;;;5011531;28;20139;-55
2022/06/12 07:58:13;;;;;;;2.35;1.10;;;;;;;;;;5011399;28;20052;-52
2022/06/12 08:00:40;;;;;;;1.50;0.90;;;;;;;;;;5012274;28;20053;-53
2022/06/12 08:03:06;;;;;;;2.60;1.20;;;;;;;;;;5012093;28;20089;-55
2022/06/12 08:05:32;;;;;;;2.83;0.95;;;;;;;;;;5001456;28;20478;-56
2022/06/12 08:07:59;;;;;;;2.22;1.00;;;;;;;;;;5010241;28;20661;-55
2022/06/12 08:10:26;;;;;;;7.15;1.20;;;;;;;;;;5010338;28;20057;-52
2022/06/12 08:12:54;;;;;;;1.60;0.90;;;;;;;;;;5010673;28;20555;-54
2022/06/12 08:15:23;;;;;;;2.90;1.10;;;;;;;;;;5011338;28;20050;-52
2022/06/12 08:17:49;;;;;;;2.70;1.02;;;;;;;;;;5011941;28;20041;-52
2022/06/12 08:20:24;;;;;;;2.55;1.00;;;;;;;;;;5010455;28;20081;-56
2022/06/12 08:22:51;;;;;;;1.40;1.20;;;;;;;;;;5011488;28;20403;-51
2022/06/12 08:25:17;;;;;;;3.75;1.50;;;;;;;;;;5009405;28;20498;-57
2022/06/12 08:27:43;;;;;;;4.50;1.42;;;;;;;;;;5009177;28;20120;-56
2022/06/12 08:30:10;;;;;;;3.50;1.05;;;;;;;;;;5009904;28;20046;-61
2022/06/12 08:32:36;;;;;;;3.50;1.00;;;;;;;;;;5010750;28;20147;-58
2022/06/12 08:35:06;;;;;;;1.95;1.02;;;;;;;;;;5011359;28;20045;-56
2022/06/12 08:37:33;;;;;;;2.63;1.13;;;;;;;;;;5003319;28;20056;-56
2022/06/12 08:40:00;;;;;;;1.90;1.00;;;;;;;;;;5009802;28;20378;-57
2022/06/12 08:42:37;;;;;;;2.22;0.93;;;;;;;;;;5000167;28;20056;-59
2022/06/12 08:45:03;;;;;;;1.45;1.10;;;;;;;;;;4991227;28;20041;-56
2022/06/12 08:47:47;;;;;;;2.97;0.95;;;;;;;;;;4993139;28;20475;-54
2022/06/12 08:50:18;;;;;;;3.22;1.08;;;;;;;;;;5010991;28;20383;-56
2022/06/12 08:52:50;;;;;;;5.72;1.92;;;;;;;;;;5005933;28;20806;-56
2022/06/12 08:55:27;;;;;;;4.57;1.20;;;;;;;;;;4997808;28;20069;-56
2022/06/12 08:57:53;;;;;;;1.65;1.10;;;;;;;;;;5003540;28;20046;-55
2022/06/12 09:00:22;;;;;;;3.08;0.90;;;;;;;;;;4989573;28;20502;-55
2022/06/12 09:02:49;;;;;;;1.88;1.00;;;;;;;;;;4982131;28;20051;-55
2022/06/12 09:05:18;;;;;;;2.58;1.08;;;;;;;;;;4994364;28;20038;-55
2022/06/12 09:07:47;;;;;;;2.90;1.20;;;;;;;;;;4995674;28;20049;-51
2022/06/12 09:10:29;;;;;;;3.38;1.30;;;;;;;;;;5006321;28;20045;-54
2022/06/12 09:13:02;;;;;;;2.95;1.20;;;;;;;;;;4993559;28;20467;-54
2022/06/12 09:15:37;;;;;;;6.22;1.80;;;;;;;;;;5002266;28;20046;-54
2022/06/12 09:18:10;;;;;;;6.55;1.75;;;;;;;;;;5008907;28;20037;-55
2022/06/12 09:20:45;;;;;;;7.10;1.90;;;;;;;;;;5003438;28;20034;-56
2022/06/12 09:23:11;;;;;;;4.65;1.67;;;;;;;;;;5007020;28;20109;-57
2022/06/12 09:25:50;;;;;;;7.68;1.70;;;;;;;;;;5005300;28;20037;-53
2022/06/12 09:28:22;;;;;;;5.97;1.20;;;;;;;;;;5007794;28;20066;-55
2022/06/12 09:31:15;;;;;;;2.90;1.40;;;;;;;;;;4994801;28;20045;-54
2022/06/12 09:33:47;;;;;;;3.88;1.35;;;;;;;;;;4992839;28;20172;-53
2022/06/12 09:36:19;;;;;;;3.72;1.75;;;;;;;;;;4995062;28;20042;-53
2022/06/12 09:39:00;;;;;;;8.13;1.77;;;;;;;;;;4991297;28;20039;-54
2022/06/12 09:41:59;;;;;;;5.10;1.35;;;;;;;;;;4987729;28;20077;-52
2022/06/12 09:44:34;;;;;;;3.72;1.38;;;;;;;;;;4955029;28;20056;-56
2022/06/12 09:47:08;;;;;;;7.43;1.30;;;;;;;;;;4974385;28;20078;-58
2022/06/12 09:49:34;;;;;;;7.32;1.70;;;;;;;;;;4992508;28;20047;-53
2022/06/12 09:52:09;;;;;;;3.63;1.17;;;;;;;;;;4995162;28;20448;-55
2022/06/12 09:54:54;;;;;;;3.83;1.20;;;;;;;;;;4995031;28;20053;-56
2022/06/12 09:57:26;;;;;;;3.72;1.58;;;;;;;;;;4998199;28;20047;-56
2022/06/12 10:00:07;;;;;;;5.70;1.30;;;;;;;;;;5004461;28;20180;-53
2022/06/12 10:02:36;;;;;;;6.55;1.67;;;;;;;;;;4988297;28;20057;-56
2022/06/12 10:05:09;;;;;;;3.80;1.20;;;;;;;;;;4994121;28;20073;-59
2022/06/12 10:07:51;;;;;;;4.95;1.50;;;;;;;;;;4990694;28;20038;-57
2022/06/12 10:10:22;;;;;;;3.38;1.00;;;;;;;;;;4988966;28;20361;-57
2022/06/12 10:12:51;;;;;;;4.05;1.20;;;;;;;;;;4990498;28;20066;-54
2022/06/12 10:15:23;;;;;;;3.20;1.10;;;;;;;;;;4973435;28;20054;-57
2022/06/12 10:18:06;;;;;;;3.42;1.20;;;;;;;;;;4987123;28;20046;-57
2022/06/12 10:20:34;;;;;;;4.90;1.10;;;;;;;;;;4976148;28;20427;-55
2022/06/12 10:23:00;;;;;;;2.67;1.20;;;;;;;;;;4999719;28;20042;-55
2022/06/12 10:25:31;;;;;;;1.73;0.98;;;;;;;;;;5006680;28;20057;-56
2022/06/12 10:28:01;;;;;;;6.20;1.27;;;;;;;;;;5011147;28;20116;-56
2022/06/12 10:30:31;;;;;;;3.05;1.65;;;;;;;;;;4999733;28;20137;-56
2022/06/12 10:32:57;;;;;;;4.00;1.02;;;;;;;;;;4998597;28;20069;-54
2022/06/12 10:35:26;;;;;;;5.13;2.08;;;;;;;;;;4994653;28;20050;-55
2022/06/12 10:37:52;;;;;;;4.82;1.02;;;;;;;;;;4992046;28;20121;-57
2022/06/12 10:40:24;;;;;;;2.90;1.20;;;;;;;;;;4993723;28;20129;-56
2022/06/12 10:42:51;;;;;;;3.72;1.30;;;;;;;;;;4996460;28;20149;-54
2022/06/12 10:45:23;;;;;;;4.00;1.55;;;;;;;;;;4992334;28;20038;-58
2022/06/12 10:47:50;;;;;;;2.58;1.10;;;;;;;;;;4996126;28;20042;-55
2022/06/12 10:50:17;;;;;;;2.70;1.45;;;;;;;;;;5009398;28;20073;-60
2022/06/12 10:52:55;;;;;;;5.07;1.23;;;;;;;;;;5004215;28;20050;-55
2022/06/12 10:55:36;;;;;;;2.83;1.38;;;;;;;;;;4983937;28;20046;-51
2022/06/12 10:58:18;;;;;;;1.65;1.13;;;;;;;;;;5000765;28;20038;-54
2022/06/12 11:00:46;;;;;;;3.75;1.50;;;;;;;;;;5004273;28;20115;-54
2022/06/12 11:03:15;;;;;;;3.70;1.25;;;;;;;;;;5012728;28;20057;-55
2022/06/12 11:05:42;;;;;;;5.47;1.13;;;;;;;;;;5012988;28;20054;-54
2022/06/12 11:08:09;;;;;;;2.88;1.17;;;;;;;;;;5012456;28;20395;-53
2022/06/12 11:10:39;;;;;;;2.33;0.95;;;;;;;;;;5011932;28;20054;-56
2022/06/12 11:13:11;;;;;;;3.75;1.20;;;;;;;;;;5012399;28;20056;-54
2022/06/12 11:15:59;;;;;;;2.20;1.30;;;;;;;;;;4998829;28;20049;-48
2022/06/12 11:18:44;;;;;;;4.80;1.08;;;;;;;;;;5011419;28;20056;-52
2022/06/12 11:21:13;;;;;;;1.58;0.90;;;;;;;;;;5009176;28;20089;-52
2022/06/12 11:23:42;;;;;;;2.60;1.38;;;;;;;;;;5006768;28;20085;-54
2022/06/12 11:26:29;;;;;;;10.80;1.30;;;;;;;;;;5007032;28;20365;-50
2022/06/12 11:28:58;;;;;;;5.75;1.50;;;;;;;;;;5005883;28;20514;-54
2022/06/12 11:31:34;;;;;;;2.88;1.30;;;;;;;;;;4999309;28;20053;-50
2022/06/12 11:34:08;;;;;;;2.37;1.50;;;;;;;;;;5002291;28;20046;-54
2022/06/12 11:36:40;;;;;;;5.20;1.52;;;;;;;;;;5004032;28;20120;-52
2022/06/12 11:39:30;;;;;;;2.45;1.50;;;;;;;;;;5010770;28;20053;-49
2022/06/12 11:41:56;;;;;;;2.97;1.15;;;;;;;;;;5011745;28;20049;-52
2022/06/12 11:44:36;;;;;;;5.15;1.63;;;;;;;;;;5011977;28;20072;-55
2022/06/12 11:47:10;;;;;;;1.40;1.10;;;;;;;;;;5012704;28;20046;-53
2022/06/12 11:49:56;;;;;;;1.80;1.13;;;;;;;;;;4999250;28;20046;-52
2022/06/12 11:52:37;;;;;;;3.53;1.50;;;;;;;;;;5010782;28;20041;-57
2022/06/12 11:55:15;;;;;;;5.75;1.48;;;;;;;;;;4994438;28;20061;-50
2022/06/12 11:57:51;;;;;;;2.03;1.02;;;;;;;;;;5010854;28;20108;-48
2022/06/12 12:00:18;;;;;;;3.20;1.10;;;;;;;;;;5002720;28;20069;-52
2022/06/12 12:03:00;;;;;;;6.32;1.27;;;;;;;;;;5010332;28;20062;-50
2022/06/12 12:05:32;;;;;;;3.03;1.45;;;;;;;;;;5011676;28;20187;-53
2022/06/12 12:08:07;;;;;;;1.75;1.00;;;;;;;;;;5011589;28;20107;-52
2022/06/12 12:10:39;;;;;;;3.63;1.40;;;;;;;;;;5010737;28;20049;-52
2022/06/12 12:13:09;;;;;;;3.72;1.63;;;;;;;;;;5009866;28;20033;-53
2022/06/12 12:15:39;;;;;;;7.05;1.70;;;;;;;;;;5011418;28;20041;-49
2022/06/12 12:18:08;;;;;;;1.92;1.00;;;;;;;;;;5011940;28;20041;-54
2022/06/12 12:20:38;;;;;;;5.78;1.65;;;;;;;;;;5010487;28;20053;-51
2022/06/12 12:23:04;;;;;;;3.08;1.13;;;;;;;;;;5011408;28;20129;-50
2022/06/12 12:25:46;;;;;;;4.05;1.05;;;;;;;;;;5009913;28;20038;-49
2022/06/12 12:28:17;;;;;;;2.47;1.20;;;;;;;;;;4992033;28;20484;-52
2022/06/12 12:30:45;;;;;;;3.65;1.20;;;;;;;;;;5008666;28;20795;-52
2022/06/12 12:33:15;;;;;;;2.40;1.13;;;;;;;;;;5010038;28;20058;-52
2022/06/12 12:41:11;;;;;;;2.97;1.08;;;;;;;;;;5010361;28;20703;-53
2022/06/12 12:43:37;;;;;;;;;;;;;;;;;;5010718;28;20046;-50
2022/06/12 12:46:05;;;;;;;3.40;1.25;;;;;;;;;;4994033;28;19921;-51
2022/06/12 12:48:44;;;;;;;2.75;1.25;;;;;;;;;;4999244;28;20092;-53
2022/06/12 12:51:11;;;;;;;2.22;1.00;;;;;;;;;;5010891;28;20121;-52
2022/06/12 12:53:41;;;;;;;2.88;0.98;;;;;;;;;;4993315;28;20443;-52
2022/06/12 12:56:09;;;;;;;2.47;1.10;;;;;;;;;;5009648;28;20034;-52
2022/06/12 12:58:37;;;;;;;1.52;1.00;;;;;;;;;;5010103;28;20447;-55
2022/06/12 13:01:05;;;;;;;1.15;0.77;;;;;;;;;;4989970;28;20093;-54
2022/06/12 13:03:39;;;;;;;2.33;0.85;;;;;;;;;;4997161;28;20054;-51
2022/06/12 13:06:24;;;;;;;3.63;1.40;;;;;;;;;;5001626;28;20120;-53
2022/06/12 13:09:11;;;;;;;3.28;1.30;;;;;;;;;;5003431;28;20045;-57
2022/06/12 13:11:44;;;;;;;3.67;0.82;;;;;;;;;;5009682;28;20388;-49
2022/06/12 13:14:13;;;;;;;2.88;0.88;;;;;;;;;;5010900;28;20038;-51
2022/06/12 13:16:39;;;;;;;3.83;1.67;;;;;;;;;;5009607;28;20038;-50
2022/06/12 13:19:05;;;;;;;;;;;;;;;;;;5011454;28;20064;-50
2022/06/12 13:21:53;;;;;;;4.00;0.88;;;;;;;;;;5010184;28;20346;-58
2022/06/12 13:24:22;;;;;;;1.90;0.82;;;;;;;;;;5009625;28;20053;-49
2022/06/12 13:26:48;;;;;;;1.95;0.93;;;;;;;;;;5009615;28;20041;-49
2022/06/12 13:29:16;;;;;;;3.05;1.10;;;;;;;;;;5010806;28;20472;-50
2022/06/12 13:31:52;;;;;;;2.65;0.85;;;;;;;;;;4992778;28;20068;-53
2022/06/12 13:34:18;;;;;;;3.40;1.40;;;;;;;;;;5010560;28;20407;-50
2022/06/12 13:36:45;;;;;;;2.78;1.02;;;;;;;;;;5010100;28;20041;-50
2022/06/12 13:39:20;;;;;;;1.70;0.95;;;;;;;;;;5009997;28;20042;-52
2022/06/12 13:41:49;;;;;;;1.27;0.85;;;;;;;;;;5009188;28;20080;-51
2022/06/12 13:44:27;;;;;;;2.72;0.95;;;;;;;;;;5010069;28;20042;-54
2022/06/12 13:46:54;;;;;;;2.78;1.17;;;;;;;;;;5010104;28;20317;-52
2022/06/12 13:49:41;;;;;;;2.03;1.08;;;;;;;;;;5011237;28;20041;-51
2022/06/12 13:52:27;;;;;;;4.15;1.08;;;;;;;;;;5014702;28;20042;-53
2022/06/12 13:54:53;;;;;;;3.00;0.95;;;;;;;;;;5002055;28;20054;-50
2022/06/12 13:57:25;;;;;;;4.43;1.48;;;;;;;;;;5013715;28;20133;-52
2022/06/12 13:59:51;;;;;;;2.72;1.00;;;;;;;;;;4996680;28;20045;-52
2022/06/12 14:02:19;;;;;;;1.35;0.70;;;;;;;;;;4997063;28;20129;-52
2022/06/12 14:04:51;;;;;;;2.00;0.80;;;;;;;;;;5004492;28;20046;-49
2022/06/12 14:07:17;;;;;;;2.83;1.15;;;;;;;;;;4994878;28;20107;-49
2022/06/12 14:09:43;;;;;;;1.65;0.93;;;;;;;;;;5006135;28;20050;-51
2022/06/12 14:12:13;;;;;;;3.30;1.10;;;;;;;;;;4976942;28;20054;-50
2022/06/12 14:14:43;;;;;;;1.23;0.80;;;;;;;;;;4994480;28;20042;-52
2022/06/12 14:17:35;;;;;;;2.03;0.75;;;;;;;;;;4995115;28;20108;-51
2022/06/12 14:20:01;;;;;;;2.95;1.17;;;;;;;;;;4992002;28;20058;-49
2022/06/12 14:22:30;;;;;;;2.30;1.00;;;;;;;;;;4994703;28;20472;-50
2022/06/12 14:24:58;;;;;;;1.00;0.70;;;;;;;;;;4992959;28;20120;-47
2022/06/12 14:27:32;;;;;;;2.33;1.00;;;;;;;;;;5005663;28;20077;-53
2022/06/12 14:29:58;;;;;;;2.42;0.80;;;;;;;;;;5000686;28;20057;-50
2022/06/12 14:32:26;;;;;;;1.80;0.80;;;;;;;;;;4994204;28;20108;-51
2022/06/12 14:34:58;;;;;;;3.17;0.98;;;;;;;;;;5012900;28;20060;-50
2022/06/12 14:37:26;;;;;;;2.72;1.10;;;;;;;;;;5013955;28;20049;-53
2022/06/12 14:39:52;;;;;;;1.85;1.00;;;;;;;;;;5012803;28;20050;-51
2022/06/12 14:42:20;;;;;;;1.02;0.93;;;;;;;;;;5012857;28;20044;-55
2022/06/12 14:44:46;;;;;;;2.90;1.00;;;;;;;;;;5013274;28;20625;-51
2022/06/12 14:47:17;;;;;;;0.90;0.80;;;;;;;;;;5014088;28;20422;-53
2022/06/12 14:49:43;;;;;;;1.45;1.08;;;;;;;;;;4995133;28;20058;-53
2022/06/12 14:52:09;;;;;;;2.83;1.05;;;;;;;;;;5013823;28;20048;-50
2022/06/12 14:54:36;;;;;;;1.83;0.80;;;;;;;;;;4992553;28;20096;-52
2022/06/12 14:57:03;;;;;;;4.63;1.23;;;;;;;;;;5012026;28;20049;-50
2022/06/12 14:59:29;;;;;;;1.85;1.00;;;;;;;;;;5001629;28;20038;-53
2022/06/12 15:01:56;;;;;;;2.25;0.80;;;;;;;;;;5002515;28;20463;-54
2022/06/12 15:04:23;;;;;;;4.57;1.05;;;;;;;;;;5002221;28;20470;-50
2022/06/12 15:06:49;;;;;;;1.02;0.90;;;;;;;;;;5011002;28;20046;-53
2022/06/12 15:09:16;;;;;;;3.22;0.90;;;;;;;;;;5009046;28;20068;-51
2022/06/12 15:11:42;;;;;;;1.60;0.88;;;;;;;;;;5009211;28;20103;-58
2022/06/12 15:14:12;;;;;;;2.70;0.77;;;;;;;;;;5013163;28;20060;-52
2022/06/12 15:16:38;;;;;;;1.85;0.93;;;;;;;;;;5012774;28;20479;-49
2022/06/12 15:19:04;;;;;;;2.15;1.00;;;;;;;;;;5011726;28;20050;-51
2022/06/12 15:21:34;;;;;;;2.85;0.95;;;;;;;;;;5012975;28;20042;-52
2022/06/12 15:24:01;;;;;;;2.78;1.20;;;;;;;;;;5011229;28;20042;-55
2022/06/12 15:31:57;;;;;;;1.40;0.65;;;;;;;;;;5008269;28;20116;-53